Time;durP1;ratioP1;P1;durP2;ratioP2;P2;SDS_P1;SDS_P2;PMS_P1;PMS_P2;Temp;Humidity;BMP_temperature;BMP_pressure;BME280_temperature;BME280_humidity;BME280_pressure;Samples;Min_cycle;Max_cycle;Signal;HPM_P1;HPM_P2
2021/07/13 00:01:41;;;;;;;3.50;1.70;;;29.70;99.90;;;;;;5056602;28;20205;-96
2021/07/13 00:04:13;;;;;;;2.87;1.77;;;29.80;99.90;;;;;;5055998;28;20201;-96
2021/07/13 00:06:49;;;;;;;2.93;1.47;;;29.50;99.90;;;;;;5056193;28;20213;-96
2021/07/13 00:09:24;;;;;;;2.30;1.20;;;29.70;99.90;;;;;;5025645;28;20240;-95
2021/07/13 00:11:56;;;;;;;1.50;1.30;;;30.10;99.90;;;;;;5035138;28;20225;-96
2021/07/13 00:14:30;;;;;;;1.40;1.30;;;30.20;99.90;;;;;;5035179;28;20214;-96
2021/07/13 00:17:01;;;;;;;1.37;1.27;;;30.50;99.90;;;;;;5041955;28;20284;-95
2021/07/13 00:19:33;;;;;;;3.03;1.70;;;30.30;99.90;;;;;;5055883;28;20212;-95
2021/07/13 00:22:05;;;;;;;2.17;1.53;;;30.30;99.90;;;;;;5055160;28;20236;-96
2021/07/13 00:24:40;;;;;;;1.70;1.60;;;30.50;99.90;;;;;;5054853;28;20247;-96
2021/07/13 00:27:11;;;;;;;2.97;1.67;;;30.60;99.90;;;;;;5038365;28;20677;-96
2021/07/13 00:29:42;;;;;;;3.70;1.83;;;30.70;99.90;;;;;;5032870;28;20779;-96
2021/07/13 00:32:14;;;;;;;3.53;1.50;;;30.90;99.90;;;;;;5034667;28;20240;-96
2021/07/13 00:34:45;;;;;;;2.43;1.30;;;31.00;99.20;;;;;;5050855;28;20240;-96
2021/07/13 00:37:16;;;;;;;5.57;1.70;;;30.60;99.80;;;;;;5043487;28;20295;-96
2021/07/13 00:39:49;;;;;;;3.70;1.60;;;30.40;99.90;;;;;;5034926;28;20205;-96
2021/07/13 00:42:21;;;;;;;1.63;1.53;;;30.50;99.90;;;;;;5018093;28;20209;-95
2021/07/13 00:44:53;;;;;;;5.17;1.90;;;30.30;99.90;;;;;;5034761;28;20249;-95
2021/07/13 00:47:26;;;;;;;2.47;1.50;;;30.40;99.90;;;;;;5034770;28;20296;-95
2021/07/13 00:50:00;;;;;;;1.87;1.60;;;30.20;99.90;;;;;;5034961;28;20323;-95
2021/07/13 00:52:31;;;;;;;3.07;1.40;;;30.30;99.90;;;;;;5018712;28;20209;-95
2021/07/13 00:55:05;;;;;;;3.07;1.70;;;30.10;99.90;;;;;;5038059;28;20287;-96
2021/07/13 00:57:37;;;;;;;3.23;1.50;;;30.30;99.90;;;;;;5034999;28;20295;-96
2021/07/13 01:00:10;;;;;;;2.77;1.47;;;30.30;99.90;;;;;;5034312;28;20304;-94
2021/07/13 01:02:41;;;;;;;1.93;1.73;;;30.50;99.90;;;;;;5034205;28;20262;-92
2021/07/13 01:05:17;;;;;;;2.27;1.33;;;30.40;99.90;;;;;;5034931;28;20581;-95
2021/07/13 01:07:59;;;;;;;2.73;1.60;;;31.30;99.90;;;;;;5034692;28;20208;-96
2021/07/13 01:10:42;;;;;;;3.50;1.40;;;31.90;99.70;;;;;;5034132;28;20224;-96
2021/07/13 01:13:23;;;;;;;3.08;2.00;;;32.50;98.60;;;;;;5034884;28;20240;-96
2021/07/13 01:16:05;;;;;;;2.10;1.90;;;33.00;96.30;;;;;;5018566;28;20217;-96
2021/07/13 01:18:44;;;;;;;1.92;1.73;;;33.10;95.80;;;;;;5034947;28;20205;-96
2021/07/13 01:21:38;;;;;;;3.72;1.70;;;32.80;96.30;;;;;;5037291;28;20236;-96
2021/07/13 01:24:36;;;;;;;2.40;1.85;;;32.60;95.80;;;;;;5035646;28;20648;-95
2021/07/13 01:27:26;;;;;;;2.42;1.90;;;33.10;96.00;;;;;;5038590;28;20205;-95
2021/07/13 01:30:02;;;;;;;3.20;1.60;;;33.30;95.60;;;;;;5021577;28;20315;-95
2021/07/13 01:32:36;;;;;;;5.25;1.88;;;33.10;95.40;;;;;;5040866;28;20266;-95
2021/07/13 01:35:12;;;;;;;1.92;1.67;;;33.50;95.00;;;;;;5038863;28;20200;-95
2021/07/13 01:37:46;;;;;;;3.47;1.70;;;33.50;95.30;;;;;;5021193;28;20610;-95
2021/07/13 01:40:17;;;;;;;2.03;1.70;;;33.40;94.90;;;;;;5021842;28;20299;-96
2021/07/13 01:42:49;;;;;;;1.92;1.70;;;33.30;94.00;;;;;;5039821;28;20209;-96
2021/07/13 01:45:24;;;;;;;3.08;1.98;;;32.90;93.80;;;;;;5039233;28;20221;-95
2021/07/13 01:47:57;;;;;;;2.20;1.75;;;32.90;93.20;;;;;;5051112;28;20246;-95
2021/07/13 01:50:29;;;;;;;2.70;1.70;;;32.70;94.00;;;;;;5041960;28;20227;-96
2021/07/13 01:53:01;;;;;;;2.47;1.45;;;32.70;93.70;;;;;;5060156;28;20193;-95
2021/07/13 01:55:34;;;;;;;3.75;1.80;;;33.10;93.40;;;;;;5033071;28;20212;-95
2021/07/13 01:58:07;;;;;;;3.00;1.98;;;33.10;93.40;;;;;;5047733;28;20205;-95
2021/07/13 02:00:44;;;;;;;2.85;1.52;;;33.40;93.90;;;;;;5032534;28;20232;-95
2021/07/13 02:03:17;;;;;;;5.15;1.58;;;33.30;93.30;;;;;;5055798;28;20211;-95
2021/07/13 02:05:48;;;;;;;2.25;1.50;;;33.50;93.50;;;;;;5048889;28;20229;-95
2021/07/13 02:08:20;;;;;;;3.63;1.63;;;33.50;92.90;;;;;;5045755;28;20599;-95
2021/07/13 02:10:53;;;;;;;2.80;1.80;;;33.70;92.80;;;;;;5032689;28;20736;-95
2021/07/13 02:13:26;;;;;;;2.42;1.80;;;33.10;93.60;;;;;;5052386;28;20208;-93
2021/07/13 02:16:08;;;;;;;1.85;1.45;;;33.20;94.00;;;;;;5045051;28;20271;-96
2021/07/13 02:18:41;;;;;;;2.28;1.80;;;33.20;93.40;;;;;;5049396;28;20209;-96
2021/07/13 02:26:57;;;;;;;3.63;1.52;;;32.70;93.50;;;;;;5048684;28;20216;-96
2021/07/13 02:29:34;;;;;;;2.67;1.42;;;32.40;93.60;;;;;;5049081;28;20244;-96
2021/07/13 02:32:25;;;;;;;2.85;1.70;;;31.60;93.90;;;;;;5048902;28;20267;-96
2021/07/13 02:35:17;;;;;;;1.50;1.40;;;31.20;94.70;;;;;;5033600;28;20258;-96
2021/07/13 02:38:03;;;;;;;3.28;1.92;;;31.10;95.10;;;;;;5032673;28;20209;-96
2021/07/13 02:40:39;;;;;;;2.85;1.52;;;30.60;95.50;;;;;;5040785;28;20207;-96
2021/07/13 02:43:10;;;;;;;3.17;1.60;;;29.90;95.70;;;;;;5068797;28;20720;-96
2021/07/13 02:45:43;;;;;;;2.23;1.50;;;29.10;96.00;;;;;;5033197;28;20292;-96
2021/07/13 02:48:18;;;;;;;3.50;1.70;;;28.40;97.20;;;;;;5049550;28;20201;-96
2021/07/13 02:50:56;;;;;;;2.30;1.53;;;27.70;98.20;;;;;;5049534;28;20232;-96
2021/07/13 02:56:18;;;;;;;3.43;1.70;;;27.00;99.60;;;;;;5063939;28;20219;-96
2021/07/13 02:58:52;;;;;;;2.63;1.57;;;26.80;99.50;;;;;;5065051;28;20224;-96
2021/07/13 03:01:29;;;;;;;3.67;2.13;;;26.60;99.90;;;;;;5058531;28;20199;-96
2021/07/13 03:04:05;;;;;;;2.27;1.60;;;26.50;99.90;;;;;;5039494;28;20204;-96
2021/07/13 03:06:43;;;;;;;2.17;1.70;;;26.40;99.90;;;;;;5039621;28;20186;-94
2021/07/13 03:09:17;;;;;;;2.07;1.60;;;26.20;99.90;;;;;;5021174;28;20209;-96
2021/07/13 03:49:39;;;;;;;5.00;2.90;;;24.70;99.90;;;;;;5063945;22;20249;-96
2021/07/13 03:52:13;;;;;;;3.57;2.60;;;24.60;99.90;;;;;;5032621;28;20237;-96
2021/07/13 03:55:16;;;;;;;5.43;2.50;;;24.40;99.90;;;;;;5033254;28;20201;-96
2021/07/13 03:57:53;;;;;;;5.53;2.73;;;24.30;99.90;;;;;;5038405;28;20185;-96
2021/07/13 04:00:29;;;;;;;3.47;2.33;;;24.20;99.90;;;;;;5022281;28;20249;-96
2021/07/13 04:03:02;;;;;;;4.37;2.10;;;24.10;99.90;;;;;;5024923;28;20273;-96
2021/07/13 04:05:39;;;;;;;3.10;1.97;;;24.10;99.90;;;;;;5038085;28;20255;-96
2021/07/13 04:08:11;;;;;;;2.37;1.40;;;24.00;99.90;;;;;;5035226;28;20362;-96
2021/07/13 04:10:43;;;;;;;2.83;1.80;;;23.90;99.90;;;;;;5017731;28;20234;-96
2021/07/13 04:13:16;;;;;;;2.23;1.93;;;23.80;99.90;;;;;;5018272;28;20202;-94
2021/07/13 04:18:32;;;;;;;2.13;1.60;;;23.70;99.90;;;;;;5373143;22;20244;-96
2021/07/13 04:21:08;;;;;;;5.70;1.63;;;23.60;99.90;;;;;;5017554;28;20241;-96
2021/07/13 04:23:40;;;;;;;4.50;1.63;;;23.60;99.90;;;;;;5017399;28;20202;-96
2021/07/13 04:26:11;;;;;;;4.57;1.70;;;23.50;99.90;;;;;;4994577;28;20206;-96
2021/07/13 04:28:45;;;;;;;4.20;1.67;;;23.40;99.90;;;;;;5002995;28;20542;-96
2021/07/13 04:31:17;;;;;;;3.10;1.83;;;23.30;99.90;;;;;;5005386;28;20246;-96
2021/07/13 04:33:52;;;;;;;3.37;1.73;;;23.20;99.90;;;;;;5008885;28;20217;-96
2021/07/13 04:36:26;;;;;;;11.40;2.50;;;23.10;99.90;;;;;;5004506;28;20210;-96
2021/07/13 04:38:57;;;;;;;3.47;2.07;;;23.10;99.90;;;;;;4986323;28;20210;-96
2021/07/13 04:41:29;;;;;;;6.03;2.03;;;23.00;99.90;;;;;;5003937;28;20210;-96
2021/07/13 04:44:03;;;;;;;2.73;1.67;;;22.90;99.90;;;;;;5024419;28;20236;-96
2021/07/13 04:46:36;;;;;;;3.63;1.77;;;22.70;99.90;;;;;;5027709;28;20288;-93
2021/07/13 04:49:08;;;;;;;10.87;2.13;;;22.70;99.90;;;;;;5008548;28;20205;-96
2021/07/13 04:51:42;;;;;;;3.80;2.20;;;22.60;99.90;;;;;;5015231;28;20321;-96
2021/07/13 04:54:14;;;;;;;4.40;2.13;;;22.60;99.90;;;;;;5006819;28;20284;-96
2021/07/13 04:56:46;;;;;;;4.83;2.10;;;22.50;99.90;;;;;;5005347;28;20217;-96
2021/07/13 04:59:17;;;;;;;5.40;2.23;;;22.40;99.90;;;;;;5006520;28;20651;-96
2021/07/13 05:01:49;;;;;;;4.00;2.10;;;22.40;99.90;;;;;;5005434;28;20202;-96
2021/07/13 05:04:23;;;;;;;6.67;2.53;;;22.30;99.90;;;;;;5007566;28;20214;-96
2021/07/13 05:06:57;;;;;;;5.20;3.00;;;22.20;99.90;;;;;;5009381;28;20269;-96
2021/07/13 05:09:31;;;;;;;11.33;3.30;;;22.10;99.90;;;;;;5008643;28;20579;-96
2021/07/13 05:12:03;;;;;;;9.47;3.30;;;21.90;99.90;;;;;;5007766;28;20261;-96
2021/07/13 05:14:36;;;;;;;5.37;2.70;;;21.80;99.90;;;;;;5012052;28;20202;-96
2021/07/13 05:17:10;;;;;;;5.03;2.53;;;21.60;99.90;;;;;;4994719;28;20973;-96
2021/07/13 05:19:45;;;;;;;5.70;2.57;;;21.50;99.90;;;;;;5010399;28;20269;-96
2021/07/13 05:22:22;;;;;;;5.50;2.30;;;21.50;99.90;;;;;;5017130;28;20182;-96
2021/07/13 05:27:54;;;;;;;9.43;3.20;;;21.30;99.90;;;;;;5008100;28;20202;-96
2021/07/13 05:30:35;;;;;;;6.57;2.83;;;21.30;99.90;;;;;;5016936;28;20221;-96
2021/07/13 05:33:12;;;;;;;4.03;2.60;;;21.20;99.90;;;;;;5016561;28;20222;-96
2021/07/13 05:35:48;;;;;;;7.03;2.70;;;21.20;99.90;;;;;;5013662;28;20273;-96
2021/07/13 05:38:22;;;;;;;7.47;2.73;;;21.10;99.90;;;;;;5008460;28;20221;-96
2021/07/13 05:40:58;;;;;;;5.80;3.07;;;21.00;99.90;;;;;;5007658;28;20205;-96
2021/07/13 05:43:29;;;;;;;8.00;3.10;;;20.90;99.90;;;;;;4996553;28;20194;-96
2021/07/13 06:18:25;;;;;;;6.03;3.10;;;20.20;99.90;;;;;;5070724;23;20325;-96
2021/07/13 06:21:01;;;;;;;6.60;2.90;;;20.10;99.90;;;;;;5073505;28;20204;-96
2021/07/13 06:23:43;;;;;;;7.90;2.70;;;20.10;99.90;;;;;;5074393;28;20200;-96
2021/07/13 06:26:16;;;;;;;5.77;2.63;;;20.00;99.90;;;;;;5072669;28;20212;-96
2021/07/13 06:28:48;;;;;;;6.40;3.40;;;19.90;99.90;;;;;;5072779;28;20216;-96
2021/07/13 06:31:22;;;;;;;7.67;3.17;;;19.80;99.90;;;;;;5071919;28;20212;-96
2021/07/13 06:33:57;;;;;;;7.23;2.80;;;19.80;99.90;;;;;;5072951;28;20208;-96
2021/07/13 06:36:30;;;;;;;8.73;3.10;;;19.70;99.90;;;;;;5067016;28;20262;-96
2021/07/13 06:39:02;;;;;;;5.47;2.63;;;19.60;99.90;;;;;;5066000;28;20265;-95
2021/07/13 06:41:33;;;;;;;3.70;2.83;;;19.60;99.90;;;;;;5066000;28;20204;-96
2021/07/13 06:44:05;;;;;;;7.63;3.00;;;19.60;99.90;;;;;;5079750;28;20196;-93
2021/07/13 06:46:37;;;;;;;5.53;2.77;;;19.50;99.90;;;;;;5079189;28;20230;-96
2021/07/13 06:49:12;;;;;;;8.17;3.10;;;19.50;99.90;;;;;;5071190;28;20227;-96
2021/07/13 06:51:44;;;;;;;9.57;2.87;;;19.40;99.90;;;;;;5046298;28;20254;-95
2021/07/13 06:54:16;;;;;;;6.70;3.10;;;19.40;99.90;;;;;;5044513;28;20208;-95
2021/07/13 06:56:48;;;;;;;6.00;3.30;;;19.30;99.90;;;;;;5075502;28;20264;-95
2021/07/13 06:59:22;;;;;;;7.07;3.00;;;19.20;99.90;;;;;;5079748;28;20203;-95
2021/07/13 07:01:53;;;;;;;5.67;3.43;;;19.20;99.90;;;;;;5061964;28;20279;-96
2021/07/13 07:04:30;;;;;;;7.23;2.90;;;19.20;99.90;;;;;;5060087;28;20200;-96
2021/07/13 07:07:01;;;;;;;10.07;2.77;;;19.20;99.90;;;;;;5060530;28;20235;-96
2021/07/13 07:09:32;;;;;;;6.93;2.87;;;19.10;99.90;;;;;;5060420;28;20220;-94
2021/07/13 07:12:05;;;;;;;6.83;2.90;;;19.00;99.90;;;;;;5059138;28;20746;-95
2021/07/13 07:14:38;;;;;;;9.40;3.47;;;19.00;99.90;;;;;;5060226;28;20545;-95
2021/07/13 07:17:10;;;;;;;7.60;2.60;;;19.00;99.90;;;;;;5043383;28;20217;-96
2021/07/13 07:19:44;;;;;;;6.53;3.00;;;19.00;99.90;;;;;;5063882;28;20211;-95
2021/07/13 07:22:15;;;;;;;6.90;2.50;;;18.90;99.90;;;;;;5063900;28;20604;-95
2021/07/13 07:24:47;;;;;;;7.70;3.00;;;18.80;99.90;;;;;;5064129;28;20208;-96
2021/07/13 07:27:18;;;;;;;5.33;2.70;;;18.80;99.90;;;;;;5049943;28;20551;-96
2021/07/13 07:29:57;;;;;;;9.00;3.23;;;18.80;99.90;;;;;;5049653;28;20267;-96
2021/07/13 07:32:29;;;;;;;6.20;2.57;;;18.80;99.90;;;;;;5069090;28;20263;-96
2021/07/13 07:35:06;;;;;;;7.13;3.37;;;18.70;99.90;;;;;;5073574;28;20204;-96
2021/07/13 07:37:40;;;;;;;5.57;3.07;;;18.70;99.90;;;;;;5073469;28;20211;-95
2021/07/13 07:40:17;;;;;;;6.83;3.20;;;18.70;99.90;;;;;;5073304;28;20211;-95
2021/07/13 07:42:50;;;;;;;6.00;3.23;;;18.60;99.90;;;;;;5071964;28;20208;-95
2021/07/13 07:45:27;;;;;;;4.10;2.47;;;18.60;99.90;;;;;;5072623;28;20237;-95
2021/07/13 07:48:11;;;;;;;7.97;2.83;;;18.50;99.90;;;;;;5076035;28;20197;-94
2021/07/13 07:50:46;;;;;;;8.33;2.90;;;18.40;99.90;;;;;;5056462;28;20215;-96
2021/07/13 07:53:20;;;;;;;7.33;2.90;;;18.30;99.90;;;;;;5048683;28;20231;-96
2021/07/13 07:55:53;;;;;;;8.10;2.90;;;18.10;99.90;;;;;;5048251;28;20209;-96
2021/07/13 07:58:25;;;;;;;4.40;2.70;;;18.10;99.90;;;;;;5045416;28;20279;-96
2021/07/13 08:00:57;;;;;;;7.37;2.83;;;18.00;99.90;;;;;;5061450;28;20250;-96
2021/07/13 08:03:29;;;;;;;6.80;2.83;;;18.00;99.90;;;;;;5062030;28;20264;-96
2021/07/13 08:06:03;;;;;;;7.63;3.43;;;18.00;99.90;;;;;;5041722;28;20621;-96
2021/07/13 08:08:35;;;;;;;6.87;3.30;;;18.00;99.90;;;;;;5058327;28;20311;-96
2021/07/13 08:11:08;;;;;;;9.50;3.03;;;18.00;99.90;;;;;;5078349;28;20211;-96
2021/07/13 08:13:40;;;;;;;6.20;2.97;;;18.00;99.90;;;;;;5079970;28;20309;-96
2021/07/13 08:16:11;;;;;;;9.23;3.37;;;17.90;99.90;;;;;;5068019;28;20287;-96
2021/07/13 08:18:43;;;;;;;6.40;3.10;;;17.80;99.90;;;;;;5059539;28;20250;-96
2021/07/13 08:21:37;;;;;;;6.17;3.00;;;17.80;99.90;;;;;;5057125;28;20299;-95
2021/07/13 08:24:09;;;;;;;7.17;2.87;;;17.80;99.90;;;;;;5057730;28;20237;-94
2021/07/13 08:26:40;;;;;;;4.47;3.20;;;17.80;99.90;;;;;;5057747;28;20220;-94
2021/07/13 08:29:11;;;;;;;5.80;3.07;;;17.70;99.90;;;;;;5065643;28;20283;-95
2021/07/13 08:31:45;;;;;;;6.90;2.90;;;17.70;99.90;;;;;;5059112;28;20575;-94
2021/07/13 08:34:16;;;;;;;7.80;3.40;;;17.70;99.90;;;;;;5059033;28;20236;-94
2021/07/13 08:36:50;;;;;;;7.00;3.27;;;17.70;99.90;;;;;;5057831;28;20215;-95
2021/07/13 08:39:23;;;;;;;4.07;2.93;;;17.60;99.90;;;;;;5057125;28;20238;-94
2021/07/13 08:41:54;;;;;;;5.97;3.10;;;17.60;99.90;;;;;;5055863;28;20275;-94
2021/07/13 08:44:25;;;;;;;7.10;2.77;;;17.70;99.90;;;;;;5056220;28;20212;-94
2021/07/13 08:46:57;;;;;;;7.10;3.00;;;17.70;99.90;;;;;;5058229;28;20287;-96
2021/07/13 08:49:32;;;;;;;6.77;3.07;;;17.70;99.90;;;;;;5065809;28;20233;-95
2021/07/13 08:52:06;;;;;;;4.63;3.00;;;17.70;99.90;;;;;;5076664;28;20309;-95
2021/07/13 08:54:37;;;;;;;8.80;3.57;;;17.80;99.90;;;;;;5077368;28;20263;-96
2021/07/13 08:57:11;;;;;;;8.50;3.40;;;17.80;99.90;;;;;;5077158;28;20606;-96
2021/07/13 08:59:44;;;;;;;4.80;3.00;;;17.70;99.90;;;;;;5077551;28;20211;-95
2021/07/13 09:02:19;;;;;;;9.57;3.33;;;17.70;99.90;;;;;;5075287;28;20287;-96
2021/07/13 09:04:50;;;;;;;9.93;3.00;;;17.70;99.90;;;;;;5076527;28;20189;-96
2021/07/13 09:07:24;;;;;;;6.93;3.60;;;17.70;99.90;;;;;;5076192;28;20188;-94
2021/07/13 09:10:03;;;;;;;8.97;3.80;;;17.70;99.90;;;;;;5075774;28;20200;-95
2021/07/13 09:12:34;;;;;;;10.70;3.87;;;17.70;99.90;;;;;;5058536;28;20204;-94
2021/07/13 09:15:08;;;;;;;8.57;3.70;;;17.70;99.90;;;;;;5060908;28;20302;-95
2021/07/13 09:17:42;;;;;;;9.07;3.83;;;17.70;99.90;;;;;;5074474;28;20295;-95
2021/07/13 09:20:21;;;;;;;9.47;3.63;;;17.70;99.90;;;;;;5049067;28;20213;-95
2021/07/13 09:23:00;;;;;;;9.67;3.90;;;17.70;99.90;;;;;;5038737;28;20706;-96
2021/07/13 09:25:34;;;;;;;11.00;4.33;;;17.80;99.90;;;;;;5038829;28;20270;-94
2021/07/13 09:28:14;;;;;;;12.00;4.50;;;17.70;99.90;;;;;;5042023;28;20216;-96
2021/07/13 09:30:48;;;;;;;6.60;3.90;;;17.60;99.90;;;;;;5042252;28;20243;-96
2021/07/13 09:33:24;;;;;;;8.57;3.97;;;17.70;99.90;;;;;;5058848;28;20227;-96
2021/07/13 09:36:11;;;;;;;9.70;4.03;;;17.60;99.90;;;;;;5058470;28;20207;-96
2021/07/13 09:39:00;;;;;;;10.57;4.30;;;17.50;99.90;;;;;;5072261;28;20234;-96
2021/07/13 09:41:42;;;;;;;11.13;4.17;;;17.50;99.90;;;;;;5083954;28;20208;-96
2021/07/13 09:44:27;;;;;;;11.93;4.60;;;17.40;99.90;;;;;;5084004;28;20204;-96
2021/07/13 09:46:59;;;;;;;10.27;4.30;;;17.30;99.90;;;;;;5081727;28;20223;-96
2021/07/13 09:49:32;;;;;;;11.07;4.67;;;17.20;99.90;;;;;;5082076;28;20585;-96
2021/07/13 09:52:06;;;;;;;15.27;4.67;;;17.20;99.90;;;;;;5084126;28;20678;-95
2021/07/13 09:54:46;;;;;;;10.30;4.13;;;17.10;99.90;;;;;;5085406;28;20304;-96
2021/07/13 09:57:18;;;;;;;13.27;4.63;;;17.10;99.90;;;;;;5081611;28;20217;-96
2021/07/13 09:59:50;;;;;;;10.97;4.90;;;17.10;99.90;;;;;;5056851;28;20254;-96
2021/07/13 10:02:24;;;;;;;15.33;5.30;;;17.10;99.90;;;;;;5044808;28;20275;-96
2021/07/13 10:04:57;;;;;;;12.67;4.43;;;17.10;99.90;;;;;;5062303;28;20203;-95
2021/07/13 10:07:31;;;;;;;12.73;4.80;;;17.00;99.90;;;;;;5062787;28;20250;-96
2021/07/13 10:10:14;;;;;;;10.03;4.10;;;17.00;99.90;;;;;;5044947;28;20291;-96
2021/07/13 10:12:49;;;;;;;12.27;4.53;;;17.00;99.90;;;;;;5076187;28;20250;-96
2021/07/13 10:15:21;;;;;;;12.40;4.83;;;16.90;99.90;;;;;;5081625;28;20264;-96
2021/07/13 10:17:54;;;;;;;10.73;4.23;;;16.80;99.90;;;;;;5082718;28;20615;-96
2021/07/13 10:20:27;;;;;;;11.07;4.33;;;16.80;99.90;;;;;;5085166;28;20198;-96
2021/07/13 10:23:03;;;;;;;8.97;4.20;;;16.80;99.90;;;;;;5086733;28;20234;-96
2021/07/13 10:25:44;;;;;;;12.33;5.17;;;16.80;99.90;;;;;;5067369;28;20220;-95
2021/07/13 10:28:20;;;;;;;11.60;4.03;;;16.80;99.90;;;;;;5074246;28;20218;-96
2021/07/13 10:30:56;;;;;;;12.20;5.00;;;16.80;99.90;;;;;;5087206;28;20204;-96
2021/07/13 10:33:47;;;;;;;10.53;4.43;;;16.70;99.90;;;;;;5073022;28;20219;-96
2021/07/13 10:36:41;;;;;;;12.57;4.13;;;16.70;99.90;;;;;;5072479;28;20267;-95
2021/07/13 10:39:30;;;;;;;10.37;4.00;;;16.60;99.90;;;;;;5092957;28;20199;-96
2021/07/13 10:42:05;;;;;;;10.00;3.93;;;16.50;99.90;;;;;;5033165;28;20223;-95
2021/07/13 10:44:44;;;;;;;11.90;4.80;;;16.50;99.90;;;;;;5049873;28;20209;-96
2021/07/13 10:47:23;;;;;;;10.63;3.90;;;16.40;99.90;;;;;;5041861;28;20276;-96
2021/07/13 10:50:33;;;;;;;8.60;4.00;;;16.50;99.90;;;;;;5059052;28;20216;-96
2021/07/13 10:53:06;;;;;;;10.50;4.87;;;16.40;99.90;;;;;;5059191;28;20197;-96
2021/07/13 10:56:13;;;;;;;9.07;4.20;;;16.40;99.90;;;;;;5058598;28;20260;-96
2021/07/13 10:58:49;;;;;;;11.93;4.67;;;16.40;99.90;;;;;;5058161;28;20205;-96
2021/07/13 11:01:43;;;;;;;9.67;4.17;;;16.30;99.90;;;;;;5055149;28;20205;-96
2021/07/13 11:04:15;;;;;;;12.23;4.37;;;16.30;99.90;;;;;;5048306;28;20213;-95
2021/07/13 11:06:56;;;;;;;10.30;4.70;;;16.20;99.90;;;;;;5029132;28;20227;-96
2021/07/13 11:09:38;;;;;;;7.53;3.70;;;16.10;99.90;;;;;;5045816;28;20193;-96
2021/07/13 11:12:15;;;;;;;10.13;4.67;;;16.00;99.90;;;;;;5044314;28;20205;-95
2021/07/13 11:15:00;;;;;;;10.73;4.40;;;16.00;99.90;;;;;;5044947;28;20247;-95
2021/07/13 11:17:33;;;;;;;11.23;4.73;;;15.90;99.90;;;;;;5044122;28;20221;-95
2021/07/13 11:22:59;;;;;;;10.90;4.50;;;15.90;99.90;;;;;;5044067;28;20253;-95
2021/07/13 11:25:34;;;;;;;10.27;4.47;;;15.90;99.90;;;;;;5047448;28;20200;-95
2021/07/13 11:28:07;;;;;;;11.13;4.67;;;15.80;99.90;;;;;;5058409;28;20227;-96
2021/07/13 11:30:42;;;;;;;8.77;4.20;;;15.90;99.90;;;;;;5071170;28;20195;-96
2021/07/13 11:33:15;;;;;;;14.97;4.53;;;15.80;99.90;;;;;;5067524;28;20192;-95
2021/07/13 11:35:54;;;;;;;11.27;3.80;;;15.70;99.90;;;;;;5046035;28;20244;-96
2021/07/13 11:38:31;;;;;;;8.10;3.73;;;15.70;99.90;;;;;;5043757;28;20235;-96
2021/07/13 11:41:10;;;;;;;11.67;4.93;;;15.70;99.90;;;;;;5060412;28;20223;-96
2021/07/13 11:43:44;;;;;;;12.63;4.37;;;15.60;99.90;;;;;;5042484;28;20583;-96
2021/07/13 11:46:19;;;;;;;12.20;4.20;;;15.50;99.90;;;;;;5062383;28;20223;-96
2021/07/13 11:48:59;;;;;;;15.57;5.40;;;15.40;99.90;;;;;;5063630;28;20284;-96
2021/07/13 11:51:32;;;;;;;13.30;4.47;;;15.40;99.90;;;;;;5062186;28;20270;-96
2021/07/13 11:54:04;;;;;;;7.67;3.87;;;15.40;99.90;;;;;;5061758;28;20238;-96
2021/07/13 11:56:37;;;;;;;12.13;5.43;;;15.50;99.90;;;;;;5067290;28;20216;-96
2021/07/13 11:59:10;;;;;;;15.17;4.47;;;15.40;99.90;;;;;;5060775;28;20304;-96
2021/07/13 12:01:44;;;;;;;9.80;4.50;;;15.30;99.90;;;;;;5059869;28;20235;-96
2021/07/13 12:04:16;;;;;;;13.37;4.53;;;15.30;99.90;;;;;;5059900;28;20242;-96
2021/07/13 12:06:53;;;;;;;11.97;4.87;;;15.30;99.90;;;;;;5062522;28;20219;-96
2021/07/13 12:09:27;;;;;;;10.27;4.20;;;15.20;99.90;;;;;;5062687;28;20254;-95
2021/07/13 12:12:01;;;;;;;11.37;4.50;;;15.20;99.90;;;;;;5044990;28;20234;-96
2021/07/13 12:14:33;;;;;;;11.40;4.10;;;15.20;99.90;;;;;;5061123;28;21090;-95
2021/07/13 12:17:12;;;;;;;11.40;4.37;;;15.20;99.90;;;;;;5060623;28;20295;-96
2021/07/13 12:19:45;;;;;;;10.97;4.10;;;15.10;99.90;;;;;;5069214;28;20314;-96
2021/07/13 12:22:22;;;;;;;13.30;4.80;;;15.00;99.90;;;;;;5087065;28;20199;-96
2021/07/13 12:25:00;;;;;;;11.87;4.60;;;15.10;99.90;;;;;;5079029;28;20203;-95
2021/07/13 12:27:34;;;;;;;8.90;4.30;;;14.90;99.90;;;;;;5076141;28;20208;-95
2021/07/13 12:30:15;;;;;;;8.83;4.47;;;14.90;99.90;;;;;;5075517;28;20258;-95
2021/07/13 12:33:04;;;;;;;7.47;4.03;;;14.80;99.90;;;;;;5061428;28;20208;-96
2021/07/13 12:35:37;;;;;;;9.73;4.43;;;14.80;99.90;;;;;;5075355;28;20232;-96
2021/07/13 12:38:14;;;;;;;11.87;4.40;;;14.80;99.90;;;;;;5063186;28;20215;-96
2021/07/13 12:40:48;;;;;;;11.27;4.83;;;14.80;99.90;;;;;;5066171;28;20239;-95
2021/07/13 12:43:22;;;;;;;13.37;5.70;;;14.80;99.90;;;;;;5066623;28;20223;-94
2021/07/13 12:45:55;;;;;;;9.90;4.47;;;14.70;99.90;;;;;;5057651;28;20295;-95
2021/07/13 12:48:38;;;;;;;11.03;4.30;;;14.70;99.90;;;;;;5059289;28;20653;-96
2021/07/13 12:51:09;;;;;;;10.10;5.10;;;14.70;99.90;;;;;;5055390;28;20220;-96
2021/07/13 12:53:40;;;;;;;12.47;4.57;;;14.60;99.90;;;;;;5055992;28;20209;-95
2021/07/13 12:56:12;;;;;;;10.80;4.83;;;14.60;99.90;;;;;;5055786;28;20228;-95
2021/07/13 12:58:43;;;;;;;9.77;4.73;;;14.70;99.90;;;;;;5055835;28;20238;-95
2021/07/13 13:01:19;;;;;;;10.73;4.53;;;14.70;99.90;;;;;;5056556;28;20299;-95
2021/07/13 13:03:52;;;;;;;10.20;4.17;;;14.70;99.90;;;;;;5056292;28;20208;-95
2021/07/13 13:06:25;;;;;;;10.37;4.03;;;14.70;99.90;;;;;;5057013;28;20250;-95
2021/07/13 13:09:07;;;;;;;15.67;4.87;;;14.80;99.90;;;;;;5057020;28;20268;-95
2021/07/13 13:11:41;;;;;;;10.27;5.17;;;14.80;99.90;;;;;;5059630;28;20241;-95
2021/07/13 13:14:18;;;;;;;10.70;4.50;;;14.80;99.90;;;;;;5057529;28;20203;-95
2021/07/13 13:16:49;;;;;;;12.20;4.73;;;14.80;99.90;;;;;;5056841;28;20323;-95
2021/07/13 13:19:23;;;;;;;12.70;5.30;;;14.80;99.90;;;;;;5060792;28;20230;-94
2021/07/13 13:21:55;;;;;;;11.67;4.83;;;14.70;99.90;;;;;;5057949;28;20212;-95
2021/07/13 13:24:26;;;;;;;12.07;5.37;;;14.70;99.90;;;;;;5061531;28;20227;-95
2021/07/13 13:26:58;;;;;;;11.97;5.43;;;14.70;99.90;;;;;;5044378;28;20265;-95
2021/07/13 13:29:33;;;;;;;14.23;4.90;;;14.70;99.90;;;;;;5060953;28;20265;-95
2021/07/13 13:32:05;;;;;;;13.87;5.27;;;14.80;99.90;;;;;;5060246;28;20290;-95
2021/07/13 13:34:38;;;;;;;12.60;5.13;;;14.80;99.90;;;;;;5059993;28;20208;-95
2021/07/13 13:37:11;;;;;;;10.10;5.40;;;14.80;99.90;;;;;;5060460;28;20236;-95
2021/07/13 13:39:42;;;;;;;12.53;5.03;;;14.80;99.90;;;;;;5061206;28;20211;-95
2021/07/13 13:42:14;;;;;;;10.20;5.07;;;14.80;99.90;;;;;;5063021;28;20208;-96
2021/07/13 13:44:47;;;;;;;10.80;4.83;;;14.90;99.90;;;;;;5013245;28;20208;-95
2021/07/13 13:47:19;;;;;;;13.93;5.37;;;15.00;99.90;;;;;;5079726;28;20215;-96
2021/07/13 13:49:52;;;;;;;14.33;5.60;;;15.00;99.90;;;;;;5080081;28;20188;-96
2021/07/13 13:52:26;;;;;;;10.37;5.40;;;15.10;99.90;;;;;;5071993;28;20204;-92
2021/07/13 13:54:58;;;;;;;11.97;5.27;;;15.10;99.90;;;;;;5061597;28;20209;-95
2021/07/13 13:57:30;;;;;;;13.40;5.10;;;15.20;99.90;;;;;;5044119;28;20212;-95
2021/07/13 14:00:05;;;;;;;12.00;5.77;;;15.30;99.90;;;;;;5047923;28;20264;-96
2021/07/13 14:02:36;;;;;;;11.30;5.70;;;15.20;99.90;;;;;;5043285;28;20212;-96
2021/07/13 14:05:11;;;;;;;10.07;5.63;;;15.30;99.90;;;;;;5042599;28;20236;-96
2021/07/13 14:07:42;;;;;;;11.27;5.70;;;15.30;99.90;;;;;;5042920;28;20250;-96
2021/07/13 14:10:14;;;;;;;8.87;5.47;;;15.10;99.90;;;;;;5044980;28;20267;-95
2021/07/13 14:12:45;;;;;;;10.23;5.37;;;15.20;99.90;;;;;;5049256;28;20205;-96
2021/07/13 14:15:20;;;;;;;9.50;5.47;;;15.30;99.90;;;;;;5050068;28;20208;-96
2021/07/13 14:17:56;;;;;;;12.93;6.03;;;15.40;99.90;;;;;;5032137;28;20243;-96
2021/07/13 14:20:33;;;;;;;10.07;5.50;;;15.40;99.90;;;;;;5048320;28;20243;-95
2021/07/13 14:23:04;;;;;;;14.30;6.07;;;15.50;99.90;;;;;;5028969;28;20232;-95
2021/07/13 14:25:36;;;;;;;11.50;5.40;;;15.50;99.90;;;;;;5040598;28;20201;-96
2021/07/13 14:28:08;;;;;;;12.63;6.17;;;15.50;99.90;;;;;;5066220;28;20216;-96
2021/07/13 14:30:42;;;;;;;10.33;5.93;;;15.50;99.90;;;;;;5031865;28;20236;-95
2021/07/13 14:33:14;;;;;;;15.10;6.53;;;15.60;99.90;;;;;;5060719;28;20599;-96
2021/07/13 14:35:47;;;;;;;12.10;5.77;;;15.70;99.90;;;;;;5063226;28;20728;-96
2021/07/13 14:38:20;;;;;;;14.30;5.87;;;15.70;99.90;;;;;;5073050;28;20239;-95
2021/07/13 14:40:51;;;;;;;15.70;5.93;;;15.80;99.90;;;;;;5048158;28;20227;-95
2021/07/13 14:43:22;;;;;;;9.80;5.70;;;15.90;99.90;;;;;;5066693;28;20203;-96
2021/07/13 14:45:55;;;;;;;11.77;5.37;;;16.00;99.90;;;;;;5047483;28;20342;-95
2021/07/13 14:48:27;;;;;;;11.70;5.27;;;16.30;99.90;;;;;;5060105;28;20204;-95
2021/07/13 14:51:01;;;;;;;12.93;5.23;;;17.10;99.90;;;;;;5048183;28;20243;-96